Corea, ME

3:58 AM EST on December 28, 2014 (GMT -0500)
Pigeon Hill | Change Station
CLOSE
Current Station
Personal Weather Station
Location: Steuben, ME
Elevation: 217 ft
Nearby Weather Stations

Elev 217 ft 44.46 °N, 67.89 °W | Updated 14 seconds ago

Overcast
Overcast
45.1 °F
Feels Like 41 °F
N
8.0
Wind Variable Wind from WSW
Gusts 18.0 mph

Today
High -- | Low -- °F
--% Chance of Precip.
Yesterday
High -- | Low -- °F
Precip. -- in
7:07 AM 3:59 PM
Waxing Crescent, 45% visible
Pressure 29.80 in
Visibility 10.0 miles
Clouds Overcast 6500 ft
Windchill 41 °F
Dew Point 42 °F
Humidity 88%
Rainfall 0.00 in
Snow Depth Not available.
UV 0 out of 12
Pollen .10 out of 12
Air Quality Not available.
Flu Activity Not available.
METAR KBHB 280855Z AUTO 21008KT 10SM OVC065 07/06 A2980 RMK AO1 57041

More Conditions Fewer Conditions

Pressure 29.80 in
Visibility 10.0 miles
Clouds Overcast 6500 ft
Windchill 41 °F
Dew Point 42 °F
Humidity 88%
Rainfall 0.00 in
Snow Depth Not available.
UV 0 out of 12
Pollen .10 out of 12
Air Quality Not available.
Flu Activity Not available.
METAR KBHB 280855Z AUTO 21008KT 10SM OVC065 07/06 A2980 RMK AO1 57041

More Conditions Fewer Conditions

10-Day Weather Forecast

Almanac

Astronomy

Dec. 28, 2014 Rise Set
Actual Time
Civil Twilight
Nautical Twilight
Astronomical Twilight
Moon
Length of Visible Light
Length of Day
Tomorrow will be .
, % of the Moon is Illuminated

Today's Extremes

State Highs State Lows

Community

WunderPhotos

Upload Photos

1,781,210 photos uploaded!

WunderBlogs® & News

Nearby

Air Quality

  Air Quality AQ Index Pollutant
Not available.

Snow Depth

Station Depth Elevation

Earthquake Activity

City Distance Mag. Time & Date
Minimum magnitude displayed is 2.5.

Coastal Water Temperatures

Place Temperature

Nearby Weather Stations